sensor_id;sensor_type;location;lat;lon;timestamp;temperature;humidity
55771;DHT22;41687;-33.234;-60.334;2023-04-06T00:01:25;21.40;80.90
55771;DHT22;41687;-33.234;-60.334;2023-04-06T00:03:53;21.40;80.90
55771;DHT22;41687;-33.234;-60.334;2023-04-06T00:06:21;21.40;81.00
55771;DHT22;41687;-33.234;-60.334;2023-04-06T00:08:48;21.20;81.50
55771;DHT22;41687;-33.234;-60.334;2023-04-06T00:11:16;21.20;81.60
55771;DHT22;41687;-33.234;-60.334;2023-04-06T00:13:45;21.20;81.80
55771;DHT22;41687;-33.234;-60.334;2023-04-06T00:16:12;21.20;81.70
55771;DHT22;41687;-33.234;-60.334;2023-04-06T00:18:40;21.20;81.90
55771;DHT22;41687;-33.234;-60.334;2023-04-06T00:21:11;21.20;81.70
55771;DHT22;41687;-33.234;-60.334;2023-04-06T00:23:40;21.30;81.70
55771;DHT22;41687;-33.234;-60.334;2023-04-06T00:26:09;21.30;81.60
55771;DHT22;41687;-33.234;-60.334;2023-04-06T00:28:39;21.20;81.90
55771;DHT22;41687;-33.234;-60.334;2023-04-06T00:31:07;21.20;81.80
55771;DHT22;41687;-33.234;-60.334;2023-04-06T00:33:35;21.20;82.10
55771;DHT22;41687;-33.234;-60.334;2023-04-06T00:36:02;21.10;82.50
55771;DHT22;41687;-33.234;-60.334;2023-04-06T00:38:30;21.10;83.00
55771;DHT22;41687;-33.234;-60.334;2023-04-06T00:40:57;21.10;83.20
55771;DHT22;41687;-33.234;-60.334;2023-04-06T00:43:26;21.00;83.10
55771;DHT22;41687;-33.234;-60.334;2023-04-06T00:45:53;21.00;83.00
55771;DHT22;41687;-33.234;-60.334;2023-04-06T00:48:22;21.00;82.90
55771;DHT22;41687;-33.234;-60.334;2023-04-06T00:50:49;21.00;82.90
55771;DHT22;41687;-33.234;-60.334;2023-04-06T00:53:17;21.00;82.80
55771;DHT22;41687;-33.234;-60.334;2023-04-06T00:55:45;21.00;82.80
55771;DHT22;41687;-33.234;-60.334;2023-04-06T00:58:13;20.90;83.20
55771;DHT22;41687;-33.234;-60.334;2023-04-06T01:00:50;20.90;83.30
55771;DHT22;41687;-33.234;-60.334;2023-04-06T01:03:21;20.90;83.90
55771;DHT22;41687;-33.234;-60.334;2023-04-06T01:05:49;20.80;84.10
55771;DHT22;41687;-33.234;-60.334;2023-04-06T01:08:25;20.80;84.50
55771;DHT22;41687;-33.234;-60.334;2023-04-06T01:11:02;20.70;84.80
55771;DHT22;41687;-33.234;-60.334;2023-04-06T01:13:30;20.70;85.00
55771;DHT22;41687;-33.234;-60.334;2023-04-06T01:16:01;20.70;85.10
55771;DHT22;41687;-33.234;-60.334;2023-04-06T01:19:07;20.60;85.20
55771;DHT22;41687;-33.234;-60.334;2023-04-06T01:21:37;20.60;85.40
55771;DHT22;41687;-33.234;-60.334;2023-04-06T01:24:22;20.60;85.50
55771;DHT22;41687;-33.234;-60.334;2023-04-06T01:27:08;20.60;85.80
55771;DHT22;41687;-33.234;-60.334;2023-04-06T01:30:02;20.60;85.30
55771;DHT22;41687;-33.234;-60.334;2023-04-06T01:32:57;20.60;85.50
55771;DHT22;41687;-33.234;-60.334;2023-04-06T01:35:36;20.60;85.40
55771;DHT22;41687;-33.234;-60.334;2023-04-06T01:38:15;20.60;85.50
55771;DHT22;41687;-33.234;-60.334;2023-04-06T01:40:44;20.50;85.60
55771;DHT22;41687;-33.234;-60.334;2023-04-06T01:43:12;20.50;85.80
55771;DHT22;41687;-33.234;-60.334;2023-04-06T01:45:57;20.50;85.50
55771;DHT22;41687;-33.234;-60.334;2023-04-06T01:48:30;20.50;85.60
55771;DHT22;41687;-33.234;-60.334;2023-04-06T01:51:00;20.60;85.60
55771;DHT22;41687;-33.234;-60.334;2023-04-06T01:53:32;20.50;85.60
55771;DHT22;41687;-33.234;-60.334;2023-04-06T01:56:05;20.50;85.70
55771;DHT22;41687;-33.234;-60.334;2023-04-06T01:58:38;20.50;86.20
55771;DHT22;41687;-33.234;-60.334;2023-04-06T02:01:14;20.50;86.40
55771;DHT22;41687;-33.234;-60.334;2023-04-06T02:03:55;20.50;87.00
55771;DHT22;41687;-33.234;-60.334;2023-04-06T02:06:24;20.50;86.80
55771;DHT22;41687;-33.234;-60.334;2023-04-06T02:08:52;20.50;86.70
55771;DHT22;41687;-33.234;-60.334;2023-04-06T02:11:20;20.60;86.80
55771;DHT22;41687;-33.234;-60.334;2023-04-06T02:14:08;20.60;86.10
55771;DHT22;41687;-33.234;-60.334;2023-04-06T02:16:44;20.60;86.20
55771;DHT22;41687;-33.234;-60.334;2023-04-06T02:19:12;20.60;86.70
55771;DHT22;41687;-33.234;-60.334;2023-04-06T02:21:39;20.60;86.40
55771;DHT22;41687;-33.234;-60.334;2023-04-06T02:24:08;20.50;86.50
55771;DHT22;41687;-33.234;-60.334;2023-04-06T02:26:35;20.60;86.60
55771;DHT22;41687;-33.234;-60.334;2023-04-06T02:29:03;20.60;86.50
55771;DHT22;41687;-33.234;-60.334;2023-04-06T02:31:34;20.50;87.10
55771;DHT22;41687;-33.234;-60.334;2023-04-06T02:34:03;20.50;87.10
55771;DHT22;41687;-33.234;-60.334;2023-04-06T02:36:32;20.50;87.20
55771;DHT22;41687;-33.234;-60.334;2023-04-06T02:39:00;20.50;86.70
55771;DHT22;41687;-33.234;-60.334;2023-04-06T02:41:28;20.40;87.10
55771;DHT22;41687;-33.234;-60.334;2023-04-06T02:43:58;20.40;87.60
55771;DHT22;41687;-33.234;-60.334;2023-04-06T02:46:36;20.30;87.70
55771;DHT22;41687;-33.234;-60.334;2023-04-06T02:49:04;20.30;87.80
55771;DHT22;41687;-33.234;-60.334;2023-04-06T02:51:34;20.30;88.40
55771;DHT22;41687;-33.234;-60.334;2023-04-06T02:54:18;20.30;88.60
55771;DHT22;41687;-33.234;-60.334;2023-04-06T02:56:46;20.30;88.70
55771;DHT22;41687;-33.234;-60.334;2023-04-06T02:59:14;20.20;89.10
55771;DHT22;41687;-33.234;-60.334;2023-04-06T03:01:48;20.30;89.00
55771;DHT22;41687;-33.234;-60.334;2023-04-06T03:04:16;20.30;89.10
55771;DHT22;41687;-33.234;-60.334;2023-04-06T03:06:44;20.30;89.00
55771;DHT22;41687;-33.234;-60.334;2023-04-06T03:09:21;20.30;89.70
55771;DHT22;41687;-33.234;-60.334;2023-04-06T03:11:50;20.30;89.40
55771;DHT22;41687;-33.234;-60.334;2023-04-06T03:14:17;20.30;89.40
55771;DHT22;41687;-33.234;-60.334;2023-04-06T03:16:49;20.30;89.20
55771;DHT22;41687;-33.234;-60.334;2023-04-06T03:19:21;20.30;90.00
55771;DHT22;41687;-33.234;-60.334;2023-04-06T03:21:49;20.30;90.10
55771;DHT22;41687;-33.234;-60.334;2023-04-06T03:24:19;20.20;90.50
55771;DHT22;41687;-33.234;-60.334;2023-04-06T03:26:48;20.10;90.50
55771;DHT22;41687;-33.234;-60.334;2023-04-06T03:29:15;20.10;90.30
55771;DHT22;41687;-33.234;-60.334;2023-04-06T03:31:43;20.10;90.40
55771;DHT22;41687;-33.234;-60.334;2023-04-06T03:34:24;20.10;90.70
55771;DHT22;41687;-33.234;-60.334;2023-04-06T03:36:52;20.10;90.80
55771;DHT22;41687;-33.234;-60.334;2023-04-06T03:39:21;20.10;90.70
55771;DHT22;41687;-33.234;-60.334;2023-04-06T03:41:50;20.10;90.70
55771;DHT22;41687;-33.234;-60.334;2023-04-06T03:44:31;20.20;90.50
55771;DHT22;41687;-33.234;-60.334;2023-04-06T03:46:59;20.10;90.40
55771;DHT22;41687;-33.234;-60.334;2023-04-06T03:49:27;20.10;90.30
55771;DHT22;41687;-33.234;-60.334;2023-04-06T03:51:56;20.00;90.50
55771;DHT22;41687;-33.234;-60.334;2023-04-06T03:54:24;19.90;90.80
55771;DHT22;41687;-33.234;-60.334;2023-04-06T03:56:52;19.80;91.00
55771;DHT22;41687;-33.234;-60.334;2023-04-06T03:59:19;19.80;90.90
55771;DHT22;41687;-33.234;-60.334;2023-04-06T04:01:47;19.70;91.20
55771;DHT22;41687;-33.234;-60.334;2023-04-06T04:04:15;19.70;91.30
55771;DHT22;41687;-33.234;-60.334;2023-04-06T04:06:43;19.80;91.40
55771;DHT22;41687;-33.234;-60.334;2023-04-06T04:09:10;19.70;91.20
55771;DHT22;41687;-33.234;-60.334;2023-04-06T04:11:38;19.70;91.50
55771;DHT22;41687;-33.234;-60.334;2023-04-06T04:14:06;19.70;91.40
55771;DHT22;41687;-33.234;-60.334;2023-04-06T04:16:34;19.60;91.60
55771;DHT22;41687;-33.234;-60.334;2023-04-06T04:19:03;19.70;91.40
55771;DHT22;41687;-33.234;-60.334;2023-04-06T04:21:31;19.60;91.40
55771;DHT22;41687;-33.234;-60.334;2023-04-06T04:24:05;19.70;91.40
55771;DHT22;41687;-33.234;-60.334;2023-04-06T04:26:36;19.60;91.40
55771;DHT22;41687;-33.234;-60.334;2023-04-06T04:29:05;19.60;91.50
55771;DHT22;41687;-33.234;-60.334;2023-04-06T04:31:35;19.60;91.40
55771;DHT22;41687;-33.234;-60.334;2023-04-06T04:34:07;19.60;91.40
55771;DHT22;41687;-33.234;-60.334;2023-04-06T04:36:35;19.50;91.50
55771;DHT22;41687;-33.234;-60.334;2023-04-06T04:39:06;19.50;91.60
55771;DHT22;41687;-33.234;-60.334;2023-04-06T04:41:38;19.50;91.50
55771;DHT22;41687;-33.234;-60.334;2023-04-06T04:44:09;19.60;91.50
55771;DHT22;41687;-33.234;-60.334;2023-04-06T04:46:38;19.60;91.50
55771;DHT22;41687;-33.234;-60.334;2023-04-06T04:49:06;19.50;91.70
55771;DHT22;41687;-33.234;-60.334;2023-04-06T04:51:34;19.40;91.70
55771;DHT22;41687;-33.234;-60.334;2023-04-06T04:54:12;19.40;91.80
55771;DHT22;41687;-33.234;-60.334;2023-04-06T04:56:42;19.50;91.80
55771;DHT22;41687;-33.234;-60.334;2023-04-06T04:59:22;19.40;91.80
55771;DHT22;41687;-33.234;-60.334;2023-04-06T05:01:57;19.50;91.60
55771;DHT22;41687;-33.234;-60.334;2023-04-06T05:04:35;19.40;91.70
55771;DHT22;41687;-33.234;-60.334;2023-04-06T05:07:08;19.40;91.70
55771;DHT22;41687;-33.234;-60.334;2023-04-06T05:09:39;19.40;91.70
55771;DHT22;41687;-33.234;-60.334;2023-04-06T05:12:08;19.40;91.70
55771;DHT22;41687;-33.234;-60.334;2023-04-06T05:14:46;19.40;91.50
55771;DHT22;41687;-33.234;-60.334;2023-04-06T05:17:17;19.40;91.50
55771;DHT22;41687;-33.234;-60.334;2023-04-06T05:19:44;19.30;91.20
55771;DHT22;41687;-33.234;-60.334;2023-04-06T05:22:15;19.30;91.30
55771;DHT22;41687;-33.234;-60.334;2023-04-06T05:24:48;19.30;91.20
55771;DHT22;41687;-33.234;-60.334;2023-04-06T05:27:16;19.30;91.20
55771;DHT22;41687;-33.234;-60.334;2023-04-06T05:29:43;19.40;90.90
55771;DHT22;41687;-33.234;-60.334;2023-04-06T05:32:11;19.40;90.70
55771;DHT22;41687;-33.234;-60.334;2023-04-06T05:34:39;19.30;90.90
55771;DHT22;41687;-33.234;-60.334;2023-04-06T05:37:08;19.40;91.10
55771;DHT22;41687;-33.234;-60.334;2023-04-06T05:39:36;19.30;91.00
55771;DHT22;41687;-33.234;-60.334;2023-04-06T05:42:05;19.30;90.90
55771;DHT22;41687;-33.234;-60.334;2023-04-06T05:44:53;19.40;90.90
55771;DHT22;41687;-33.234;-60.334;2023-04-06T05:47:21;19.40;90.90
55771;DHT22;41687;-33.234;-60.334;2023-04-06T05:49:57;19.30;90.90
55771;DHT22;41687;-33.234;-60.334;2023-04-06T05:52:32;19.30;90.80
55771;DHT22;41687;-33.234;-60.334;2023-04-06T05:55:00;19.30;91.00
55771;DHT22;41687;-33.234;-60.334;2023-04-06T05:57:29;19.30;90.80
55771;DHT22;41687;-33.234;-60.334;2023-04-06T05:59:57;19.30;90.60
55771;DHT22;41687;-33.234;-60.334;2023-04-06T06:02:30;19.30;90.30
55771;DHT22;41687;-33.234;-60.334;2023-04-06T06:04:59;19.30;90.20
55771;DHT22;41687;-33.234;-60.334;2023-04-06T06:07:27;19.30;90.10
55771;DHT22;41687;-33.234;-60.334;2023-04-06T06:09:59;19.30;89.90
55771;DHT22;41687;-33.234;-60.334;2023-04-06T06:12:32;19.20;89.90
55771;DHT22;41687;-33.234;-60.334;2023-04-06T06:15:02;19.20;89.60
55771;DHT22;41687;-33.234;-60.334;2023-04-06T06:17:33;19.20;89.50
55771;DHT22;41687;-33.234;-60.334;2023-04-06T06:20:01;19.20;89.70
55771;DHT22;41687;-33.234;-60.334;2023-04-06T06:22:29;19.10;89.60
55771;DHT22;41687;-33.234;-60.334;2023-04-06T06:24:57;19.10;89.70
55771;DHT22;41687;-33.234;-60.334;2023-04-06T06:27:25;19.00;89.80
55771;DHT22;41687;-33.234;-60.334;2023-04-06T06:29:53;19.00;90.00
55771;DHT22;41687;-33.234;-60.334;2023-04-06T06:32:23;19.00;90.10
55771;DHT22;41687;-33.234;-60.334;2023-04-06T06:34:52;18.90;90.20
55771;DHT22;41687;-33.234;-60.334;2023-04-06T06:37:20;18.90;90.10
55771;DHT22;41687;-33.234;-60.334;2023-04-06T06:39:49;18.80;90.20
55771;DHT22;41687;-33.234;-60.334;2023-04-06T06:42:19;18.90;90.10
55771;DHT22;41687;-33.234;-60.334;2023-04-06T06:44:54;18.80;90.50
55771;DHT22;41687;-33.234;-60.334;2023-04-06T06:47:24;18.80;90.40
55771;DHT22;41687;-33.234;-60.334;2023-04-06T06:49:54;18.90;90.30
55771;DHT22;41687;-33.234;-60.334;2023-04-06T06:52:22;18.90;90.10
55771;DHT22;41687;-33.234;-60.334;2023-04-06T06:54:51;18.80;90.40
55771;DHT22;41687;-33.234;-60.334;2023-04-06T06:57:19;18.80;90.50
55771;DHT22;41687;-33.234;-60.334;2023-04-06T06:59:48;18.70;90.70
55771;DHT22;41687;-33.234;-60.334;2023-04-06T07:02:17;18.70;90.70
55771;DHT22;41687;-33.234;-60.334;2023-04-06T07:04:48;18.70;90.80
55771;DHT22;41687;-33.234;-60.334;2023-04-06T07:07:17;18.70;90.90
55771;DHT22;41687;-33.234;-60.334;2023-04-06T07:09:45;18.70;90.90
55771;DHT22;41687;-33.234;-60.334;2023-04-06T07:12:12;18.70;90.80
55771;DHT22;41687;-33.234;-60.334;2023-04-06T07:14:41;18.70;91.00
55771;DHT22;41687;-33.234;-60.334;2023-04-06T07:17:09;18.60;91.10
55771;DHT22;41687;-33.234;-60.334;2023-04-06T07:19:38;18.60;91.20
55771;DHT22;41687;-33.234;-60.334;2023-04-06T07:22:06;18.60;91.20
55771;DHT22;41687;-33.234;-60.334;2023-04-06T07:24:34;18.60;91.20
55771;DHT22;41687;-33.234;-60.334;2023-04-06T07:27:02;18.60;91.30
55771;DHT22;41687;-33.234;-60.334;2023-04-06T07:29:31;18.60;91.30
55771;DHT22;41687;-33.234;-60.334;2023-04-06T07:31:59;18.60;91.50
55771;DHT22;41687;-33.234;-60.334;2023-04-06T07:34:27;18.50;91.30
55771;DHT22;41687;-33.234;-60.334;2023-04-06T07:36:55;18.60;91.40
55771;DHT22;41687;-33.234;-60.334;2023-04-06T07:39:24;18.60;91.40
55771;DHT22;41687;-33.234;-60.334;2023-04-06T07:41:55;18.60;91.30
55771;DHT22;41687;-33.234;-60.334;2023-04-06T07:44:24;18.60;91.30
55771;DHT22;41687;-33.234;-60.334;2023-04-06T07:46:53;18.60;91.40
55771;DHT22;41687;-33.234;-60.334;2023-04-06T07:49:22;18.60;91.50
55771;DHT22;41687;-33.234;-60.334;2023-04-06T07:51:51;18.50;91.50
55771;DHT22;41687;-33.234;-60.334;2023-04-06T07:54:19;18.50;91.70
55771;DHT22;41687;-33.234;-60.334;2023-04-06T07:56:46;18.50;91.80
55771;DHT22;41687;-33.234;-60.334;2023-04-06T07:59:14;18.50;91.80
55771;DHT22;41687;-33.234;-60.334;2023-04-06T08:01:42;18.60;91.70
55771;DHT22;41687;-33.234;-60.334;2023-04-06T08:04:10;18.60;91.60
55771;DHT22;41687;-33.234;-60.334;2023-04-06T08:06:37;18.50;91.80
55771;DHT22;41687;-33.234;-60.334;2023-04-06T08:09:05;18.50;91.70
55771;DHT22;41687;-33.234;-60.334;2023-04-06T08:11:33;18.50;91.70
55771;DHT22;41687;-33.234;-60.334;2023-04-06T08:14:01;18.50;91.90
55771;DHT22;41687;-33.234;-60.334;2023-04-06T08:16:29;18.50;92.00
55771;DHT22;41687;-33.234;-60.334;2023-04-06T08:18:56;18.50;91.90
55771;DHT22;41687;-33.234;-60.334;2023-04-06T08:21:24;18.50;92.10
55771;DHT22;41687;-33.234;-60.334;2023-04-06T08:23:52;18.50;92.20
55771;DHT22;41687;-33.234;-60.334;2023-04-06T08:26:19;18.40;92.40
55771;DHT22;41687;-33.234;-60.334;2023-04-06T08:28:47;18.40;92.30
55771;DHT22;41687;-33.234;-60.334;2023-04-06T08:31:15;18.40;92.50
55771;DHT22;41687;-33.234;-60.334;2023-04-06T08:33:42;18.40;92.40
55771;DHT22;41687;-33.234;-60.334;2023-04-06T08:36:14;18.40;92.50
55771;DHT22;41687;-33.234;-60.334;2023-04-06T08:38:44;18.30;92.60
55771;DHT22;41687;-33.234;-60.334;2023-04-06T08:41:13;18.30;92.60
55771;DHT22;41687;-33.234;-60.334;2023-04-06T08:44:10;18.30;92.60
55771;DHT22;41687;-33.234;-60.334;2023-04-06T08:46:39;18.30;93.20
55771;DHT22;41687;-33.234;-60.334;2023-04-06T08:49:08;18.20;92.90
55771;DHT22;41687;-33.234;-60.334;2023-04-06T08:51:37;18.20;93.00
55771;DHT22;41687;-33.234;-60.334;2023-04-06T08:54:06;18.20;93.10
55771;DHT22;41687;-33.234;-60.334;2023-04-06T08:56:36;18.20;93.10
55771;DHT22;41687;-33.234;-60.334;2023-04-06T08:59:05;18.20;92.90
55771;DHT22;41687;-33.234;-60.334;2023-04-06T09:01:39;18.20;92.90
55771;DHT22;41687;-33.234;-60.334;2023-04-06T09:04:11;18.20;93.30
55771;DHT22;41687;-33.234;-60.334;2023-04-06T09:06:38;18.20;93.50
55771;DHT22;41687;-33.234;-60.334;2023-04-06T09:09:07;18.20;93.30
55771;DHT22;41687;-33.234;-60.334;2023-04-06T09:11:51;18.20;93.30
55771;DHT22;41687;-33.234;-60.334;2023-04-06T09:14:37;18.20;93.60
55771;DHT22;41687;-33.234;-60.334;2023-04-06T09:17:05;18.20;93.90
55771;DHT22;41687;-33.234;-60.334;2023-04-06T09:19:33;18.10;93.60
55771;DHT22;41687;-33.234;-60.334;2023-04-06T09:22:07;18.10;93.90
55771;DHT22;41687;-33.234;-60.334;2023-04-06T09:24:46;18.10;94.10
55771;DHT22;41687;-33.234;-60.334;2023-04-06T09:27:15;18.10;93.90
55771;DHT22;41687;-33.234;-60.334;2023-04-06T09:29:43;18.10;94.00
55771;DHT22;41687;-33.234;-60.334;2023-04-06T09:32:12;18.10;93.70
55771;DHT22;41687;-33.234;-60.334;2023-04-06T09:34:44;18.10;93.90
55771;DHT22;41687;-33.234;-60.334;2023-04-06T09:37:15;18.20;93.80
55771;DHT22;41687;-33.234;-60.334;2023-04-06T09:39:43;18.20;94.00
55771;DHT22;41687;-33.234;-60.334;2023-04-06T09:42:25;18.20;94.30
55771;DHT22;41687;-33.234;-60.334;2023-04-06T09:44:53;18.20;94.30
55771;DHT22;41687;-33.234;-60.334;2023-04-06T09:47:20;18.20;94.10
55771;DHT22;41687;-33.234;-60.334;2023-04-06T09:49:51;18.10;94.30
55771;DHT22;41687;-33.234;-60.334;2023-04-06T09:52:30;18.10;94.20
55771;DHT22;41687;-33.234;-60.334;2023-04-06T09:55:04;18.10;94.30
55771;DHT22;41687;-33.234;-60.334;2023-04-06T10:00:22;18.10;94.50
55771;DHT22;41687;-33.234;-60.334;2023-04-06T10:08:09;18.10;94.80
55771;DHT22;41687;-33.234;-60.334;2023-04-06T10:10:38;18.00;94.80
55771;DHT22;41687;-33.234;-60.334;2023-04-06T10:13:09;18.10;94.70
55771;DHT22;41687;-33.234;-60.334;2023-04-06T10:15:39;18.00;94.80
55771;DHT22;41687;-33.234;-60.334;2023-04-06T10:18:07;18.00;95.00
55771;DHT22;41687;-33.234;-60.334;2023-04-06T10:20:42;18.10;94.90
55771;DHT22;41687;-33.234;-60.334;2023-04-06T10:26:01;18.00;95.30
55771;DHT22;41687;-33.234;-60.334;2023-04-06T10:28:33;18.00;95.10
55771;DHT22;41687;-33.234;-60.334;2023-04-06T10:31:05;18.00;95.10
55771;DHT22;41687;-33.234;-60.334;2023-04-06T10:33:33;18.00;95.20
55771;DHT22;41687;-33.234;-60.334;2023-04-06T10:36:14;18.00;95.30
55771;DHT22;41687;-33.234;-60.334;2023-04-06T10:38:43;18.00;95.50
55771;DHT22;41687;-33.234;-60.334;2023-04-06T10:41:11;18.00;95.30
55771;DHT22;41687;-33.234;-60.334;2023-04-06T10:43:41;18.10;95.20
55771;DHT22;41687;-33.234;-60.334;2023-04-06T10:46:10;18.10;95.50
55771;DHT22;41687;-33.234;-60.334;2023-04-06T10:48:40;18.10;95.30
55771;DHT22;41687;-33.234;-60.334;2023-04-06T10:51:18;18.10;95.50
55771;DHT22;41687;-33.234;-60.334;2023-04-06T10:53:48;18.20;95.40
55771;DHT22;41687;-33.234;-60.334;2023-04-06T10:56:17;18.20;95.20
55771;DHT22;41687;-33.234;-60.334;2023-04-06T10:58:51;18.30;95.20
55771;DHT22;41687;-33.234;-60.334;2023-04-06T11:01:21;18.40;95.10
55771;DHT22;41687;-33.234;-60.334;2023-04-06T11:03:54;19.00;94.40
55771;DHT22;41687;-33.234;-60.334;2023-04-06T11:06:25;19.90;93.20
55771;DHT22;41687;-33.234;-60.334;2023-04-06T11:08:54;20.90;91.60
55771;DHT22;41687;-33.234;-60.334;2023-04-06T11:11:24;21.40;90.50
55771;DHT22;41687;-33.234;-60.334;2023-04-06T11:14:00;22.10;88.80
55771;DHT22;41687;-33.234;-60.334;2023-04-06T11:16:31;22.60;86.30
55771;DHT22;41687;-33.234;-60.334;2023-04-06T11:19:01;22.20;84.80
55771;DHT22;41687;-33.234;-60.334;2023-04-06T11:21:37;21.60;87.20
55771;DHT22;41687;-33.234;-60.334;2023-04-06T11:26:48;20.50;90.10
55771;DHT22;41687;-33.234;-60.334;2023-04-06T11:29:28;20.10;90.90
55771;DHT22;41687;-33.234;-60.334;2023-04-06T11:32:01;19.80;91.30
55771;DHT22;41687;-33.234;-60.334;2023-04-06T11:34:32;19.70;91.50
55771;DHT22;41687;-33.234;-60.334;2023-04-06T11:37:11;19.50;92.10
55771;DHT22;41687;-33.234;-60.334;2023-04-06T11:39:51;19.30;92.30
55771;DHT22;41687;-33.234;-60.334;2023-04-06T11:42:23;19.30;92.50
55771;DHT22;41687;-33.234;-60.334;2023-04-06T11:44:58;19.30;92.50
55771;DHT22;41687;-33.234;-60.334;2023-04-06T11:47:36;19.20;92.50
55771;DHT22;41687;-33.234;-60.334;2023-04-06T11:50:12;19.20;92.80
55771;DHT22;41687;-33.234;-60.334;2023-04-06T11:52:41;19.20;92.80
55771;DHT22;41687;-33.234;-60.334;2023-04-06T11:55:14;19.10;93.00
55771;DHT22;41687;-33.234;-60.334;2023-04-06T11:57:43;19.10;93.00
55771;DHT22;41687;-33.234;-60.334;2023-04-06T12:00:12;19.10;93.00
55771;DHT22;41687;-33.234;-60.334;2023-04-06T12:02:44;19.00;93.00
55771;DHT22;41687;-33.234;-60.334;2023-04-06T12:05:13;18.90;93.30
55771;DHT22;41687;-33.234;-60.334;2023-04-06T12:07:40;18.90;93.20
55771;DHT22;41687;-33.234;-60.334;2023-04-06T12:10:08;18.90;93.30
55771;DHT22;41687;-33.234;-60.334;2023-04-06T12:12:36;19.00;93.30
55771;DHT22;41687;-33.234;-60.334;2023-04-06T12:15:05;19.00;93.30
55771;DHT22;41687;-33.234;-60.334;2023-04-06T12:17:32;19.00;93.30
55771;DHT22;41687;-33.234;-60.334;2023-04-06T12:20:00;19.10;93.30
55771;DHT22;41687;-33.234;-60.334;2023-04-06T12:22:29;19.10;93.20
55771;DHT22;41687;-33.234;-60.334;2023-04-06T12:24:57;19.10;93.30
55771;DHT22;41687;-33.234;-60.334;2023-04-06T12:27:25;19.00;93.50
55771;DHT22;41687;-33.234;-60.334;2023-04-06T12:29:53;19.00;93.40
55771;DHT22;41687;-33.234;-60.334;2023-04-06T12:32:20;19.00;93.40
55771;DHT22;41687;-33.234;-60.334;2023-04-06T12:34:49;19.10;93.50
55771;DHT22;41687;-33.234;-60.334;2023-04-06T12:37:16;19.10;93.30
55771;DHT22;41687;-33.234;-60.334;2023-04-06T12:39:44;19.20;93.30
55771;DHT22;41687;-33.234;-60.334;2023-04-06T12:42:12;19.20;93.10
55771;DHT22;41687;-33.234;-60.334;2023-04-06T12:44:40;19.20;93.30
55771;DHT22;41687;-33.234;-60.334;2023-04-06T12:47:10;19.30;93.20
55771;DHT22;41687;-33.234;-60.334;2023-04-06T12:49:37;19.40;92.60
55771;DHT22;41687;-33.234;-60.334;2023-04-06T12:52:05;19.50;92.70
55771;DHT22;41687;-33.234;-60.334;2023-04-06T12:54:33;19.70;92.60
55771;DHT22;41687;-33.234;-60.334;2023-04-06T12:57:01;19.80;92.30
55771;DHT22;41687;-33.234;-60.334;2023-04-06T12:59:29;19.90;92.10
55771;DHT22;41687;-33.234;-60.334;2023-04-06T13:02:03;20.20;91.80
55771;DHT22;41687;-33.234;-60.334;2023-04-06T13:04:30;20.60;91.40
55771;DHT22;41687;-33.234;-60.334;2023-04-06T13:06:58;20.70;91.00
55771;DHT22;41687;-33.234;-60.334;2023-04-06T13:09:26;20.80;91.30
55771;DHT22;41687;-33.234;-60.334;2023-04-06T13:11:55;20.90;90.90
55771;DHT22;41687;-33.234;-60.334;2023-04-06T13:14:23;21.20;90.10
55771;DHT22;41687;-33.234;-60.334;2023-04-06T13:16:51;21.70;90.00
55771;DHT22;41687;-33.234;-60.334;2023-04-06T13:19:18;22.40;88.70
55771;DHT22;41687;-33.234;-60.334;2023-04-06T13:21:47;22.00;87.00
55771;DHT22;41687;-33.234;-60.334;2023-04-06T13:24:14;22.40;87.60
55771;DHT22;41687;-33.234;-60.334;2023-04-06T13:26:42;22.70;85.70
55771;DHT22;41687;-33.234;-60.334;2023-04-06T13:29:10;22.50;86.70
55771;DHT22;41687;-33.234;-60.334;2023-04-06T13:31:38;22.50;86.80
55771;DHT22;41687;-33.234;-60.334;2023-04-06T13:34:05;22.20;86.20
55771;DHT22;41687;-33.234;-60.334;2023-04-06T13:36:33;22.10;87.50
55771;DHT22;41687;-33.234;-60.334;2023-04-06T13:39:01;21.90;88.00
55771;DHT22;41687;-33.234;-60.334;2023-04-06T13:41:29;21.50;88.50
55771;DHT22;41687;-33.234;-60.334;2023-04-06T13:43:57;21.20;88.80
55771;DHT22;41687;-33.234;-60.334;2023-04-06T13:46:25;21.40;90.00
55771;DHT22;41687;-33.234;-60.334;2023-04-06T13:48:55;21.50;88.50
55771;DHT22;41687;-33.234;-60.334;2023-04-06T13:51:22;21.20;89.90
55771;DHT22;41687;-33.234;-60.334;2023-04-06T13:53:50;21.60;89.50
55771;DHT22;41687;-33.234;-60.334;2023-04-06T13:56:19;21.60;88.70
55771;DHT22;41687;-33.234;-60.334;2023-04-06T13:58:47;21.90;88.80
55771;DHT22;41687;-33.234;-60.334;2023-04-06T14:01:15;22.10;87.60
55771;DHT22;41687;-33.234;-60.334;2023-04-06T14:03:42;22.70;87.10
55771;DHT22;41687;-33.234;-60.334;2023-04-06T14:06:14;23.10;85.80
55771;DHT22;41687;-33.234;-60.334;2023-04-06T14:08:42;22.60;86.80
55771;DHT22;41687;-33.234;-60.334;2023-04-06T14:11:13;22.80;84.20
55771;DHT22;41687;-33.234;-60.334;2023-04-06T14:13:43;22.80;84.10
55771;DHT22;41687;-33.234;-60.334;2023-04-06T14:16:11;22.50;85.70
55771;DHT22;41687;-33.234;-60.334;2023-04-06T14:18:39;22.50;86.20
55771;DHT22;41687;-33.234;-60.334;2023-04-06T14:21:06;22.30;86.50
55771;DHT22;41687;-33.234;-60.334;2023-04-06T14:23:34;22.00;85.90
55771;DHT22;41687;-33.234;-60.334;2023-04-06T14:26:06;21.50;87.60
55771;DHT22;41687;-33.234;-60.334;2023-04-06T14:28:35;21.60;88.40
55771;DHT22;41687;-33.234;-60.334;2023-04-06T14:31:09;21.60;87.70
55771;DHT22;41687;-33.234;-60.334;2023-04-06T14:33:37;21.60;89.00
55771;DHT22;41687;-33.234;-60.334;2023-04-06T14:36:05;21.60;88.60
55771;DHT22;41687;-33.234;-60.334;2023-04-06T14:38:33;21.60;88.60
55771;DHT22;41687;-33.234;-60.334;2023-04-06T14:41:00;21.60;89.20
55771;DHT22;41687;-33.234;-60.334;2023-04-06T14:43:28;21.80;88.50
55771;DHT22;41687;-33.234;-60.334;2023-04-06T14:46:00;21.70;88.50
55771;DHT22;41687;-33.234;-60.334;2023-04-06T14:48:29;21.70;88.60
55771;DHT22;41687;-33.234;-60.334;2023-04-06T14:50:56;21.60;88.70
55771;DHT22;41687;-33.234;-60.334;2023-04-06T14:53:24;21.20;87.80
55771;DHT22;41687;-33.234;-60.334;2023-04-06T14:55:53;21.10;88.90
55771;DHT22;41687;-33.234;-60.334;2023-04-06T14:58:22;21.30;89.00
55771;DHT22;41687;-33.234;-60.334;2023-04-06T15:00:56;21.50;88.70
55771;DHT22;41687;-33.234;-60.334;2023-04-06T15:03:26;21.40;88.70
55771;DHT22;41687;-33.234;-60.334;2023-04-06T15:05:53;21.50;89.10
55771;DHT22;41687;-33.234;-60.334;2023-04-06T15:08:22;21.50;88.80
55771;DHT22;41687;-33.234;-60.334;2023-04-06T15:10:50;21.60;88.60
55771;DHT22;41687;-33.234;-60.334;2023-04-06T15:13:19;21.50;88.10
55771;DHT22;41687;-33.234;-60.334;2023-04-06T15:15:49;21.60;88.30
55771;DHT22;41687;-33.234;-60.334;2023-04-06T15:18:19;21.70;88.30
55771;DHT22;41687;-33.234;-60.334;2023-04-06T15:20:47;21.80;87.90